sensor_id;sensor_type;location;lat;lon;timestamp;pressure;altitude;pressure_sealevel;temperature;humidity
18765;BME280;9511;54.242;12.448;2024-01-10T04:05:31;103383.50;;;-2.50;100.00
18765;BME280;9511;54.242;12.448;2024-01-10T04:07:58;103377.94;;;-2.46;100.00
18765;BME280;9511;54.242;12.448;2024-01-10T04:10:26;103371.84;;;-2.46;100.00
18765;BME280;9511;54.242;12.448;2024-01-10T04:12:53;103371.44;;;-2.42;100.00
18765;BME280;9511;54.242;12.448;2024-01-10T04:15:21;103372.38;;;-2.42;100.00
18765;BME280;9511;54.242;12.448;2024-01-10T04:17:48;103370.31;;;-2.37;100.00
18765;BME280;9511;54.242;12.448;2024-01-10T04:20:16;103375.72;;;-2.43;100.00
18765;BME280;9511;54.242;12.448;2024-01-10T04:22:45;103387.00;;;-2.42;100.00
18765;BME280;9511;54.242;12.448;2024-01-10T04:25:13;103381.63;;;-2.44;100.00
18765;BME280;9511;54.242;12.448;2024-01-10T04:27:40;103381.47;;;-2.45;100.00
18765;BME280;9511;54.242;12.448;2024-01-10T04:30:08;103386.66;;;-2.45;100.00
18765;BME280;9511;54.242;12.448;2024-01-10T04:32:36;103378.69;;;-2.39;100.00
18765;BME280;9511;54.242;12.448;2024-01-10T04:35:04;103392.00;;;-2.44;100.00
18765;BME280;9511;54.242;12.448;2024-01-10T04:37:31;103377.22;;;-2.45;100.00
18765;BME280;9511;54.242;12.448;2024-01-10T04:40:00;103374.44;;;-2.46;100.00
18765;BME280;9511;54.242;12.448;2024-01-10T04:42:28;103377.38;;;-2.43;100.00
18765;BME280;9511;54.242;12.448;2024-01-10T04:44:55;103379.97;;;-2.43;100.00
18765;BME280;9511;54.242;12.448;2024-01-10T04:47:22;103372.00;;;-2.37;100.00
18765;BME280;9511;54.242;12.448;2024-01-10T04:49:50;103373.88;;;-2.44;100.00
18765;BME280;9511;54.242;12.448;2024-01-10T04:52:17;103373.88;;;-2.44;100.00
18765;BME280;9511;54.242;12.448;2024-01-10T04:54:45;103372.38;;;-2.42;100.00
18765;BME280;9511;54.242;12.448;2024-01-10T04:57:13;103365.72;;;-2.39;100.00
18765;BME280;9511;54.242;12.448;2024-01-10T04:59:41;103367.19;;;-2.42;100.00
18765;BME280;9511;54.242;12.448;2024-01-10T05:02:08;103370.16;;;-2.38;100.00
18765;BME280;9511;54.242;12.448;2024-01-10T05:04:35;103369.06;;;-2.41;100.00
18765;BME280;9511;54.242;12.448;2024-01-10T05:07:03;103368.84;;;-2.42;100.00
18765;BME280;9511;54.242;12.448;2024-01-10T05:09:30;103370.31;;;-2.37;100.00
18765;BME280;9511;54.242;12.448;2024-01-10T05:11:58;103361.81;;;-2.36;100.00
18765;BME280;9511;54.242;12.448;2024-01-10T05:14:26;103352.34;;;-2.35;100.00
18765;BME280;9511;54.242;12.448;2024-01-10T05:16:54;103353.66;;;-2.32;100.00
18765;BME280;9511;54.242;12.448;2024-01-10T05:19:21;103359.03;;;-2.37;100.00
18765;BME280;9511;54.242;12.448;2024-01-10T05:21:48;103359.03;;;-2.37;100.00
18765;BME280;9511;54.242;12.448;2024-01-10T05:24:16;103365.72;;;-2.39;100.00
18765;BME280;9511;54.242;12.448;2024-01-10T05:26:44;103355.69;;;-2.36;100.00
18765;BME280;9511;54.242;12.448;2024-01-10T05:29:12;103356.03;;;-2.26;100.00
18765;BME280;9511;54.242;12.448;2024-01-10T05:31:40;103354.56;;;-2.31;100.00
18765;BME280;9511;54.242;12.448;2024-01-10T05:34:08;103356.41;;;-2.30;100.00
18765;BME280;9511;54.242;12.448;2024-01-10T05:36:36;103347.56;;;-2.32;100.00
18765;BME280;9511;54.242;12.448;2024-01-10T05:39:03;103340.34;;;-2.35;100.00
18765;BME280;9511;54.242;12.448;2024-01-10T05:41:31;103349.06;;;-2.34;100.00
18765;BME280;9511;54.242;12.448;2024-01-10T05:43:58;103351.44;;;-2.36;100.00
18765;BME280;9511;54.242;12.448;2024-01-10T05:46:25;103348.31;;;-2.41;100.00
18765;BME280;9511;54.242;12.448;2024-01-10T05:48:55;103346.84;;;-2.46;100.00
18765;BME280;9511;54.242;12.448;2024-01-10T05:51:22;103352.94;;;-2.38;100.00
18765;BME280;9511;54.242;12.448;2024-01-10T05:53:50;103351.28;;;-2.45;100.00
18765;BME280;9511;54.242;12.448;2024-01-10T05:56:17;103340.19;;;-2.51;100.00
18765;BME280;9511;54.242;12.448;2024-01-10T05:58:45;103339.81;;;-2.54;100.00
18765;BME280;9511;54.242;12.448;2024-01-10T06:01:12;103337.22;;;-2.54;100.00
18765;BME280;9511;54.242;12.448;2024-01-10T06:03:39;103341.66;;;-2.53;100.00
18765;BME280;9511;54.242;12.448;2024-01-10T06:06:09;103331.88;;;-2.55;100.00
18765;BME280;9511;54.242;12.448;2024-01-10T06:08:36;103343.94;;;-2.63;100.00
18765;BME280;9511;54.242;12.448;2024-01-10T06:11:04;103338.53;;;-2.64;100.00
18765;BME280;9511;54.242;12.448;2024-01-10T06:13:34;103343.00;;;-2.63;100.00
18765;BME280;9511;54.242;12.448;2024-01-10T06:16:03;103348.00;;;-2.58;100.00
18765;BME280;9511;54.242;12.448;2024-01-10T06:18:30;103346.84;;;-2.53;100.00
18765;BME280;9511;54.242;12.448;2024-01-10T06:20:58;103340.75;;;-2.53;100.00
18765;BME280;9511;54.242;12.448;2024-01-10T06:23:26;103339.28;;;-2.51;100.00
18765;BME280;9511;54.242;12.448;2024-01-10T06:25:54;103333.72;;;-2.54;100.00
18765;BME280;9511;54.242;12.448;2024-01-10T06:28:21;103337.44;;;-2.52;100.00
18765;BME280;9511;54.242;12.448;2024-01-10T06:30:49;103338.34;;;-2.52;100.00
18765;BME280;9511;54.242;12.448;2024-01-10T06:33:16;103335.00;;;-2.51;100.00
18765;BME280;9511;54.242;12.448;2024-01-10T06:35:46;103336.09;;;-2.49;100.00
18765;BME280;9511;54.242;12.448;2024-01-10T06:38:13;103346.44;;;-2.42;100.00
18765;BME280;9511;54.242;12.448;2024-01-10T06:40:44;103335.56;;;-2.46;100.00
18765;BME280;9511;54.242;12.448;2024-01-10T06:43:13;103340.16;;;-2.44;100.00
18765;BME280;9511;54.242;12.448;2024-01-10T06:45:41;103342.75;;;-2.44;100.00
18765;BME280;9511;54.242;12.448;2024-01-10T06:48:09;103333.91;;;-2.46;100.00
18765;BME280;9511;54.242;12.448;2024-01-10T06:50:37;103346.44;;;-2.42;100.00
18765;BME280;9511;54.242;12.448;2024-01-10T06:53:04;103343.16;;;-2.41;100.00
18765;BME280;9511;54.242;12.448;2024-01-10T06:55:32;103334.81;;;-2.45;100.00
18765;BME280;9511;54.242;12.448;2024-01-10T06:58:00;103336.84;;;-2.43;100.00
18765;BME280;9511;54.242;12.448;2024-01-10T07:00:29;103328.16;;;-2.50;100.00
18765;BME280;9511;54.242;12.448;2024-01-10T07:03:00;103325.78;;;-2.56;100.00
18765;BME280;9511;54.242;12.448;2024-01-10T07:05:28;103334.09;;;-2.58;100.00
18765;BME280;9511;54.242;12.448;2024-01-10T07:07:57;103334.09;;;-2.58;100.00
18765;BME280;9511;54.242;12.448;2024-01-10T07:10:25;103332.78;;;-2.55;100.00
18765;BME280;9511;54.242;12.448;2024-01-10T07:12:53;103325.56;;;-2.50;100.00
18765;BME280;9511;54.242;12.448;2024-01-10T07:15:22;103317.06;;;-2.49;100.00
18765;BME280;9511;54.242;12.448;2024-01-10T07:17:50;103328.00;;;-2.52;100.00
18765;BME280;9511;54.242;12.448;2024-01-10T07:20:17;103327.06;;;-2.59;100.00
18765;BME280;9511;54.242;12.448;2024-01-10T07:22:44;103326.50;;;-2.50;100.00
18765;BME280;9511;54.242;12.448;2024-01-10T07:25:11;103330.94;;;-2.56;100.00
18765;BME280;9511;54.242;12.448;2024-01-10T07:27:40;103331.16;;;-2.61;100.00
18765;BME280;9511;54.242;12.448;2024-01-10T07:30:08;103327.28;;;-2.58;100.00
18765;BME280;9511;54.242;12.448;2024-01-10T07:32:41;103326.72;;;-2.62;100.00
18765;BME280;9511;54.242;12.448;2024-01-10T07:35:09;103326.50;;;-2.64;100.00
18765;BME280;9511;54.242;12.448;2024-01-10T07:37:37;103330.56;;;-2.59;100.00
18765;BME280;9511;54.242;12.448;2024-01-10T07:40:06;103331.69;;;-2.57;100.00
18765;BME280;9511;54.242;12.448;2024-01-10T07:42:34;103328.53;;;-2.54;100.00
18765;BME280;9511;54.242;12.448;2024-01-10T07:45:03;103332.44;;;-2.58;100.00
18765;BME280;9511;54.242;12.448;2024-01-10T07:47:32;103334.28;;;-2.57;100.00
18765;BME280;9511;54.242;12.448;2024-01-10T07:50:01;103329.66;;;-2.52;100.00
18765;BME280;9511;54.242;12.448;2024-01-10T07:52:29;103327.63;;;-2.55;100.00
18765;BME280;9511;54.242;12.448;2024-01-10T07:54:56;103329.31;;;-2.62;100.00
18765;BME280;9511;54.242;12.448;2024-01-10T07:57:24;103334.28;;;-2.50;100.00
18765;BME280;9511;54.242;12.448;2024-01-10T07:59:53;103323.16;;;-2.49;100.00
18765;BME280;9511;54.242;12.448;2024-01-10T08:02:20;103326.13;;;-2.53;100.00
18765;BME280;9511;54.242;12.448;2024-01-10T08:04:48;103332.03;;;-2.47;100.00
18765;BME280;9511;54.242;12.448;2024-01-10T08:07:18;103329.06;;;-2.43;100.00
18765;BME280;9511;54.242;12.448;2024-01-10T08:09:47;103331.47;;;-2.44;100.00
18765;BME280;9511;54.242;12.448;2024-01-10T08:12:15;103331.66;;;-2.43;100.00
18765;BME280;9511;54.242;12.448;2024-01-10T08:14:43;103328.00;;;-2.52;100.00
18765;BME280;9511;54.242;12.448;2024-01-10T08:17:12;103329.25;;;-2.48;100.00
18765;BME280;9511;54.242;12.448;2024-01-10T08:19:40;103330.19;;;-2.48;100.00
18765;BME280;9511;54.242;12.448;2024-01-10T08:22:07;103328.50;;;-2.40;100.00
18765;BME280;9511;54.242;12.448;2024-01-10T08:24:36;103328.31;;;-2.42;100.00
18765;BME280;9511;54.242;12.448;2024-01-10T08:27:04;103327.59;;;-2.41;100.00
18765;BME280;9511;54.242;12.448;2024-01-10T08:29:32;103322.41;;;-2.41;100.00
18765;BME280;9511;54.242;12.448;2024-01-10T08:31:59;103325.91;;;-2.40;100.00
18765;BME280;9511;54.242;12.448;2024-01-10T08:34:27;103329.06;;;-2.43;100.00
18765;BME280;9511;54.242;12.448;2024-01-10T08:36:54;103331.63;;;-2.35;100.00
18765;BME280;9511;54.242;12.448;2024-01-10T08:39:21;103339.03;;;-2.31;100.00
18765;BME280;9511;54.242;12.448;2024-01-10T08:41:51;103331.28;;;-2.38;100.00
18765;BME280;9511;54.242;12.448;2024-01-10T08:44:19;103338.28;;;-2.30;100.00
18765;BME280;9511;54.242;12.448;2024-01-10T08:46:46;103343.09;;;-2.26;100.00
18765;BME280;9511;54.242;12.448;2024-01-10T08:49:14;103345.53;;;-2.35;100.00
18765;BME280;9511;54.242;12.448;2024-01-10T08:51:41;103345.91;;;-2.39;100.00
18765;BME280;9511;54.242;12.448;2024-01-10T08:54:09;103343.66;;;-2.36;100.00
18765;BME280;9511;54.242;12.448;2024-01-10T08:56:38;103346.44;;;-2.27;100.00
18765;BME280;9511;54.242;12.448;2024-01-10T08:59:08;103340.47;;;-2.19;100.00
18765;BME280;9511;54.242;12.448;2024-01-10T09:01:35;103351.34;;;-2.07;100.00
18765;BME280;9511;54.242;12.448;2024-01-10T09:04:04;103347.81;;;-2.08;100.00
18765;BME280;9511;54.242;12.448;2024-01-10T09:06:32;103343.56;;;-2.00;100.00
18765;BME280;9511;54.242;12.448;2024-01-10T09:09:00;103350.19;;;-1.95;100.00
18765;BME280;9511;54.242;12.448;2024-01-10T09:11:28;103349.47;;;-1.94;100.00
18765;BME280;9511;54.242;12.448;2024-01-10T09:13:56;103342.06;;;-1.98;100.00
18765;BME280;9511;54.242;12.448;2024-01-10T09:16:24;103354.03;;;-1.84;100.00
18765;BME280;9511;54.242;12.448;2024-01-10T09:18:53;103353.06;;;-1.78;100.00
18765;BME280;9511;54.242;12.448;2024-01-10T09:21:23;103354.34;;;-1.74;100.00
18765;BME280;9511;54.242;12.448;2024-01-10T09:23:51;103353.69;;;-1.88;100.00
18765;BME280;9511;54.242;12.448;2024-01-10T09:26:19;103341.59;;;-1.80;100.00
18765;BME280;9511;54.242;12.448;2024-01-10T09:28:46;103344.97;;;-1.88;100.00
18765;BME280;9511;54.242;12.448;2024-01-10T09:31:14;103353.66;;;-1.80;100.00
18765;BME280;9511;54.242;12.448;2024-01-10T09:33:43;103353.81;;;-1.72;100.00
18765;BME280;9511;54.242;12.448;2024-01-10T09:36:10;103349.88;;;-1.68;100.00
18765;BME280;9511;54.242;12.448;2024-01-10T09:38:38;103358.72;;;-1.59;100.00
18765;BME280;9511;54.242;12.448;2024-01-10T09:41:05;103355.22;;;-1.59;100.00
18765;BME280;9511;54.242;12.448;2024-01-10T09:43:33;103354.84;;;-1.63;100.00
18765;BME280;9511;54.242;12.448;2024-01-10T09:46:01;103353.59;;;-1.66;100.00
18765;BME280;9511;54.242;12.448;2024-01-10T09:48:29;103356.47;;;-1.56;100.00
18765;BME280;9511;54.242;12.448;2024-01-10T09:50:58;103344.81;;;-1.59;100.00
18765;BME280;9511;54.242;12.448;2024-01-10T09:53:26;103349.09;;;-1.60;100.00
18765;BME280;9511;54.242;12.448;2024-01-10T09:55:56;103349.88;;;-1.68;100.00
18765;BME280;9511;54.242;12.448;2024-01-10T09:58:26;103335.91;;;-1.62;100.00
18765;BME280;9511;54.242;12.448;2024-01-10T10:00:53;103346.53;;;-1.67;100.00
18765;BME280;9511;54.242;12.448;2024-01-10T10:03:20;103351.59;;;-1.76;100.00
18765;BME280;9511;54.242;12.448;2024-01-10T10:05:48;103358.03;;;-1.72;100.00
18765;BME280;9511;54.242;12.448;2024-01-10T10:08:17;103361.53;;;-1.65;100.00
18765;BME280;9511;54.242;12.448;2024-01-10T10:10:48;103356.56;;;-1.70;100.00
18765;BME280;9511;54.242;12.448;2024-01-10T10:13:26;103356.34;;;-1.65;100.00
18765;BME280;9511;54.242;12.448;2024-01-10T10:15:58;103352.28;;;-1.70;100.00
18765;BME280;9511;54.242;12.448;2024-01-10T10:18:26;103350.44;;;-1.71;100.00
18765;BME280;9511;54.242;12.448;2024-01-10T10:21:08;103342.28;;;-1.74;100.00
18765;BME280;9511;54.242;12.448;2024-01-10T10:23:38;103341.97;;;-1.84;100.00
18765;BME280;9511;54.242;12.448;2024-01-10T10:26:13;103347.63;;;-1.65;100.00
18765;BME280;9511;54.242;12.448;2024-01-10T10:28:45;103341.66;;;-1.57;100.00
18765;BME280;9511;54.242;12.448;2024-01-10T10:31:13;103335.69;;;-1.56;100.00
18765;BME280;9511;54.242;12.448;2024-01-10T10:33:42;103341.09;;;-1.54;100.00
18765;BME280;9511;54.242;12.448;2024-01-10T10:36:10;103345.31;;;-1.48;100.00
18765;BME280;9511;54.242;12.448;2024-01-10T10:38:39;103345.31;;;-1.48;100.00
18765;BME280;9511;54.242;12.448;2024-01-10T10:41:07;103331.19;;;-1.43;100.00
18765;BME280;9511;54.242;12.448;2024-01-10T10:43:37;103325.78;;;-1.44;100.00
18765;BME280;9511;54.242;12.448;2024-01-10T10:46:06;103323.50;;;-1.34;100.00
18765;BME280;9511;54.242;12.448;2024-01-10T10:48:34;103328.94;;;-1.40;100.00
18765;BME280;9511;54.242;12.448;2024-01-10T10:51:06;103326.50;;;-1.38;100.00
18765;BME280;9511;54.242;12.448;2024-01-10T10:53:35;103319.47;;;-1.16;100.00
18765;BME280;9511;54.242;12.448;2024-01-10T10:56:05;103328.72;;;-1.11;100.00
18765;BME280;9511;54.242;12.448;2024-01-10T10:58:35;103331.94;;;-1.21;100.00
18765;BME280;9511;54.242;12.448;2024-01-10T11:01:04;103329.22;;;-1.07;100.00
18765;BME280;9511;54.242;12.448;2024-01-10T11:03:34;103328.16;;;-1.09;100.00
18765;BME280;9511;54.242;12.448;2024-01-10T11:06:03;103316.94;;;-1.23;100.00
18765;BME280;9511;54.242;12.448;2024-01-10T11:08:35;103313.94;;;-1.19;100.00
18765;BME280;9511;54.242;12.448;2024-01-10T11:11:07;103312.44;;;-1.17;100.00
18765;BME280;9511;54.242;12.448;2024-01-10T11:13:55;103304.34;;;-1.04;100.00
18765;BME280;9511;54.242;12.448;2024-01-10T11:16:55;103311.75;;;-1.00;100.00
18765;BME280;9511;54.242;12.448;2024-01-10T11:19:43;103315.88;;;-0.87;100.00
18765;BME280;9511;54.242;12.448;2024-01-10T11:22:32;103306.31;;;-0.95;100.00
18765;BME280;9511;54.242;12.448;2024-01-10T11:25:06;103307.16;;;-0.87;100.00
18765;BME280;9511;54.242;12.448;2024-01-10T11:27:37;103314.38;;;-0.85;100.00
18765;BME280;9511;54.242;12.448;2024-01-10T11:30:05;103306.41;;;-0.86;100.00
18765;BME280;9511;54.242;12.448;2024-01-10T11:32:33;103300.41;;;-0.78;100.00
18765;BME280;9511;54.242;12.448;2024-01-10T11:35:05;103299.31;;;-0.64;100.00
18765;BME280;9511;54.242;12.448;2024-01-10T11:37:39;103296.56;;;-0.66;100.00
18765;BME280;9511;54.242;12.448;2024-01-10T11:40:07;103304.09;;;-0.60;100.00
18765;BME280;9511;54.242;12.448;2024-01-10T11:42:43;103301.09;;;-0.56;100.00
18765;BME280;9511;54.242;12.448;2024-01-10T11:45:27;103304.25;;;-0.59;100.00
18765;BME280;9511;54.242;12.448;2024-01-10T11:48:03;103300.84;;;-0.50;100.00
18765;BME280;9511;54.242;12.448;2024-01-10T11:50:30;103300.09;;;-0.49;100.00
18765;BME280;9511;54.242;12.448;2024-01-10T11:52:58;103301.16;;;-0.47;100.00
18765;BME280;9511;54.242;12.448;2024-01-10T11:55:47;103298.47;;;-0.40;100.00
18765;BME280;9511;54.242;12.448;2024-01-10T11:58:16;103301.53;;;-0.29;100.00
18765;BME280;9511;54.242;12.448;2024-01-10T12:00:44;103297.91;;;-0.22;100.00
18765;BME280;9511;54.242;12.448;2024-01-10T12:03:14;103290.31;;;-0.12;100.00
18765;BME280;9511;54.242;12.448;2024-01-10T12:05:42;103290.31;;;-0.12;100.00
18765;BME280;9511;54.242;12.448;2024-01-10T12:08:09;103284.03;;;-0.14;100.00
18765;BME280;9511;54.242;12.448;2024-01-10T12:10:46;103286.75;;;-0.05;100.00
18765;BME280;9511;54.242;12.448;2024-01-10T12:13:15;103286.63;;;0.02;100.00
18765;BME280;9511;54.242;12.448;2024-01-10T12:15:43;103273.53;;;0.09;100.00
18765;BME280;9511;54.242;12.448;2024-01-10T12:18:11;103274.38;;;0.01;100.00
18765;BME280;9511;54.242;12.448;2024-01-10T12:20:38;103273.88;;;0.12;100.00
18765;BME280;9511;54.242;12.448;2024-01-10T12:23:06;103276.13;;;0.09;100.00
18765;BME280;9511;54.242;12.448;2024-01-10T12:25:33;103269.38;;;0.11;100.00
18765;BME280;9511;54.242;12.448;2024-01-10T12:28:01;103278.88;;;0.11;100.00
18765;BME280;9511;54.242;12.448;2024-01-10T12:30:30;103264.78;;;0.09;100.00
18765;BME280;9511;54.242;12.448;2024-01-10T12:32:59;103260.50;;;0.09;100.00
18765;BME280;9511;54.242;12.448;2024-01-10T12:35:27;103268.72;;;0.05;100.00
18765;BME280;9511;54.242;12.448;2024-01-10T12:37:55;103258.41;;;0.14;100.00
18765;BME280;9511;54.242;12.448;2024-01-10T12:40:22;103253.47;;;0.08;100.00
18765;BME280;9511;54.242;12.448;2024-01-10T12:43:01;103256.06;;;0.08;100.00
18765;BME280;9511;54.242;12.448;2024-01-10T12:45:30;103252.53;;;0.08;100.00
18765;BME280;9511;54.242;12.448;2024-01-10T12:47:58;103255.03;;;0.15;100.00
18765;BME280;9511;54.242;12.448;2024-01-10T12:50:26;103246.72;;;0.10;100.00
18765;BME280;9511;54.242;12.448;2024-01-10T12:52:53;103248.91;;;0.14;100.00
18765;BME280;9511;54.242;12.448;2024-01-10T12:55:20;103247.06;;;0.13;100.00
18765;BME280;9511;54.242;12.448;2024-01-10T12:57:48;103248.25;;;0.08;100.00
18765;BME280;9511;54.242;12.448;2024-01-10T13:00:16;103247.31;;;0.23;100.00
18765;BME280;9511;54.242;12.448;2024-01-10T13:02:45;103244.97;;;0.18;100.00
18765;BME280;9511;54.242;12.448;2024-01-10T13:05:13;103239.00;;;0.19;100.00
18765;BME280;9511;54.242;12.448;2024-01-10T13:07:41;103246.53;;;0.24;100.00
18765;BME280;9511;54.242;12.448;2024-01-10T13:10:08;103239.78;;;0.26;100.00
18765;BME280;9511;54.242;12.448;2024-01-10T13:12:36;103240.03;;;0.12;100.00
18765;BME280;9511;54.242;12.448;2024-01-10T13:15:03;103236.97;;;0.16;100.00
18765;BME280;9511;54.242;12.448;2024-01-10T13:17:31;103237.75;;;0.15;100.00
18765;BME280;9511;54.242;12.448;2024-01-10T13:20:00;103234.47;;;0.09;100.00
18765;BME280;9511;54.242;12.448;2024-01-10T13:22:28;103231.13;;;0.10;100.00
18765;BME280;9511;54.242;12.448;2024-01-10T13:24:56;103225.16;;;0.11;100.00
18765;BME280;9511;54.242;12.448;2024-01-10T13:27:23;103232.38;;;0.14;100.00
18765;BME280;9511;54.242;12.448;2024-01-10T13:29:50;103237.88;;;0.17;100.00
18765;BME280;9511;54.242;12.448;2024-01-10T13:32:18;103231.78;;;0.16;100.00
18765;BME280;9511;54.242;12.448;2024-01-10T13:34:46;103237.31;;;0.19;100.00
18765;BME280;9511;54.242;12.448;2024-01-10T13:37:14;103226.69;;;0.09;100.00
18765;BME280;9511;54.242;12.448;2024-01-10T13:39:42;103226.69;;;0.09;100.00
18765;BME280;9511;54.242;12.448;2024-01-10T13:42:09;103218.22;;;0.03;100.00
18765;BME280;9511;54.242;12.448;2024-01-10T13:44:37;103223.41;;;0.03;100.00
18765;BME280;9511;54.242;12.448;2024-01-10T13:47:05;103216.03;;;-0.01;100.00
18765;BME280;9511;54.242;12.448;2024-01-10T13:49:32;103212.38;;;-0.03;100.00
18765;BME280;9511;54.242;12.448;2024-01-10T13:51:59;103216.81;;;-0.02;100.00
18765;BME280;9511;54.242;12.448;2024-01-10T13:54:28;103205.06;;;0.02;100.00
18765;BME280;9511;54.242;12.448;2024-01-10T13:56:55;103210.84;;;-0.01;100.00
18765;BME280;9511;54.242;12.448;2024-01-10T13:59:23;103211.19;;;0.02;100.00
18765;BME280;9511;54.242;12.448;2024-01-10T14:01:50;103212.09;;;0.03;100.00
18765;BME280;9511;54.242;12.448;2024-01-10T14:04:18;103217.31;;;0.03;100.00
18765;BME280;9511;54.242;12.448;2024-01-10T14:06:45;103218.06;;;0.02;100.00
18765;BME280;9511;54.242;12.448;2024-01-10T14:09:12;103214.53;;;0.01;100.00
18765;BME280;9511;54.242;12.448;2024-01-10T14:11:41;103209.75;;;-0.03;100.00
18765;BME280;9511;54.242;12.448;2024-01-10T14:14:10;103222.88;;;-0.10;100.00
18765;BME280;9511;54.242;12.448;2024-01-10T14:16:38;103215.72;;;-0.04;100.00
18765;BME280;9511;54.242;12.448;2024-01-10T14:19:07;103209.09;;;-0.09;100.00
18765;BME280;9511;54.242;12.448;2024-01-10T14:21:34;103208.03;;;-0.11;100.00
18765;BME280;9511;54.242;12.448;2024-01-10T14:24:02;103207.44;;;-0.09;100.00
18765;BME280;9511;54.242;12.448;2024-01-10T14:26:29;103207.44;;;-0.09;100.00
18765;BME280;9511;54.242;12.448;2024-01-10T14:28:57;103201.19;;;-0.02;100.00
18765;BME280;9511;54.242;12.448;2024-01-10T14:31:25;103204.97;;;-0.07;100.00
18765;BME280;9511;54.242;12.448;2024-01-10T14:33:52;103212.38;;;-0.03;100.00
18765;BME280;9511;54.242;12.448;2024-01-10T14:36:20;103199.19;;;-0.05;100.00
18765;BME280;9511;54.242;12.448;2024-01-10T14:38:48;103202.47;;;0.02;100.00
18765;BME280;9511;54.242;12.448;2024-01-10T14:41:16;103204.44;;;0.04;100.00
18765;BME280;9511;54.242;12.448;2024-01-10T14:43:44;103202.59;;;0.03;100.00
18765;BME280;9511;54.242;12.448;2024-01-10T14:46:12;103197.41;;;0.03;100.00
18765;BME280;9511;54.242;12.448;2024-01-10T14:48:40;103194.97;;;0.05;100.00
18765;BME280;9511;54.242;12.448;2024-01-10T14:51:07;103198.81;;;0.08;100.00
18765;BME280;9511;54.242;12.448;2024-01-10T14:53:34;103205.44;;;0.13;100.00
18765;BME280;9511;54.242;12.448;2024-01-10T14:56:02;103196.09;;;0.15;100.00
18765;BME280;9511;54.242;12.448;2024-01-10T14:58:30;103206.50;;;0.15;100.00
18765;BME280;9511;54.242;12.448;2024-01-10T15:00:58;103209.09;;;0.15;100.00
18765;BME280;9511;54.242;12.448;2024-01-10T15:03:27;103203.59;;;0.12;100.00
18765;BME280;9511;54.242;12.448;2024-01-10T15:05:54;103203.91;;;0.15;100.00
18765;BME280;9511;54.242;12.448;2024-01-10T15:08:22;103201.72;;;0.11;100.00
18765;BME280;9511;54.242;12.448;2024-01-10T15:10:49;103197.91;;;0.08;100.00
18765;BME280;9511;54.242;12.448;2024-01-10T15:13:16;103193.63;;;0.08;100.00
18765;BME280;9511;54.242;12.448;2024-01-10T15:15:45;103191.78;;;0.07;100.00
18765;BME280;9511;54.242;12.448;2024-01-10T15:18:12;103182.13;;;0.06;100.00
18765;BME280;9511;54.242;12.448;2024-01-10T15:20:42;103185.31;;;0.04;100.00
18765;BME280;9511;54.242;12.448;2024-01-10T15:23:10;103178.44;;;0.04;100.00
18765;BME280;9511;54.242;12.448;2024-01-10T15:25:37;103168.34;;;0.07;100.00
18765;BME280;9511;54.242;12.448;2024-01-10T15:28:05;103176.94;;;0.06;100.00
18765;BME280;9511;54.242;12.448;2024-01-10T15:30:33;103174.78;;;0.11;100.00
18765;BME280;9511;54.242;12.448;2024-01-10T15:33:00;103169.44;;;0.09;100.00
18765;BME280;9511;54.242;12.448;2024-01-10T15:35:27;103179.69;;;0.08;100.00
18765;BME280;9511;54.242;12.448;2024-01-10T15:37:56;103168.66;;;0.10;100.00
18765;BME280;9511;54.242;12.448;2024-01-10T15:40:23;103179.53;;;0.06;100.00
18765;BME280;9511;54.242;12.448;2024-01-10T15:42:51;103182.13;;;0.06;100.00
18765;BME280;9511;54.242;12.448;2024-01-10T15:45:18;103190.66;;;0.05;100.00
18765;BME280;9511;54.242;12.448;2024-01-10T15:47:45;103179.34;;;0.05;100.00
18765;BME280;9511;54.242;12.448;2024-01-10T15:50:13;103182.88;;;0.05;100.00
18765;BME280;9511;54.242;12.448;2024-01-10T15:52:41;103180.25;;;0.05;100.00
18765;BME280;9511;54.242;12.448;2024-01-10T15:55:10;103171.72;;;0.06;100.00
18765;BME280;9511;54.242;12.448;2024-01-10T15:57:37;103172.94;;;0.10;100.00
18765;BME280;9511;54.242;12.448;2024-01-10T16:00:06;103167.59;;;0.08;100.00
18765;BME280;9511;54.242;12.448;2024-01-10T16:02:33;103164.66;;;0.05;100.00
18765;BME280;9511;54.242;12.448;2024-01-10T16:05:01;103166.41;;;0.13;100.00
18765;BME280;9511;54.242;12.448;2024-01-10T16:07:28;103165.47;;;0.13;100.00
18765;BME280;9511;54.242;12.448;2024-01-10T16:09:55;103174.97;;;0.12;100.00
18765;BME280;9511;54.242;12.448;2024-01-10T16:12:24;103167.44;;;0.07;100.00
18765;BME280;9511;54.242;12.448;2024-01-10T16:14:51;103166.53;;;0.06;100.00
18765;BME280;9511;54.242;12.448;2024-01-10T16:17:18;103163.16;;;0.07;100.00
18765;BME280;9511;54.242;12.448;2024-01-10T16:19:46;103163.72;;;0.05;100.00
18765;BME280;9511;54.242;12.448;2024-01-10T16:22:13;103158.53;;;0.05;100.00
18765;BME280;9511;54.242;12.448;2024-01-10T16:24:41;103150.56;;;0.03;100.00
18765;BME280;9511;54.242;12.448;2024-01-10T16:27:08;103148.13;;;0.05;100.00
18765;BME280;9511;54.242;12.448;2024-01-10T16:29:37;103150.16;;;0.07;100.00
18765;BME280;9511;54.242;12.448;2024-01-10T16:32:05;103148.47;;;0.08;100.00
18765;BME280;9511;54.242;12.448;2024-01-10T16:34:33;103142.91;;;0.05;100.00
18765;BME280;9511;54.242;12.448;2024-01-10T16:37:01;103148.72;;;0.02;100.00
18765;BME280;9511;54.242;12.448;2024-01-10T16:39:29;103150.41;;;0.02;100.00
18765;BME280;9511;54.242;12.448;2024-01-10T16:41:57;103148.72;;;0.02;100.00
18765;BME280;9511;54.242;12.448;2024-01-10T16:44:24;103145.78;;;-0.01;100.00
18765;BME280;9511;54.242;12.448;2024-01-10T16:46:53;103138.47;;;0.04;100.00
18765;BME280;9511;54.242;12.448;2024-01-10T16:49:20;103136.16;;;-0.02;100.00
18765;BME280;9511;54.242;12.448;2024-01-10T16:51:47;103137.69;;;-0.04;100.00
18765;BME280;9511;54.242;12.448;2024-01-10T16:54:14;103144.06;;;-0.09;100.00